sensor_id;sensor_type;location;lat;lon;timestamp;P1;durP1;ratioP1;P2;durP2;ratioP2
15806;SDS011;8005;51.368;6.140;2023-04-15T00:02:14;9.85;;;3.60;;
15806;SDS011;8005;51.368;6.140;2023-04-15T00:03:47;9.27;;;4.20;;
15806;SDS011;8005;51.368;6.140;2023-04-15T00:05:21;8.65;;;3.95;;
15806;SDS011;8005;51.368;6.140;2023-04-15T00:06:53;7.43;;;4.15;;
15806;SDS011;8005;51.368;6.140;2023-04-15T00:08:25;7.90;;;3.70;;
15806;SDS011;8005;51.368;6.140;2023-04-15T00:09:57;9.98;;;3.95;;
15806;SDS011;8005;51.368;6.140;2023-04-15T00:11:29;9.50;;;4.00;;
15806;SDS011;8005;51.368;6.140;2023-04-15T00:13:01;10.98;;;3.80;;
15806;SDS011;8005;51.368;6.140;2023-04-15T00:14:35;9.35;;;4.38;;
15806;SDS011;8005;51.368;6.140;2023-04-15T00:16:07;8.10;;;3.70;;
15806;SDS011;8005;51.368;6.140;2023-04-15T00:17:40;7.82;;;3.90;;
15806;SDS011;8005;51.368;6.140;2023-04-15T00:19:12;7.70;;;3.90;;
15806;SDS011;8005;51.368;6.140;2023-04-15T00:20:44;6.20;;;3.65;;
15806;SDS011;8005;51.368;6.140;2023-04-15T00:22:16;7.47;;;3.90;;
15806;SDS011;8005;51.368;6.140;2023-04-15T00:23:48;11.55;;;4.28;;
15806;SDS011;8005;51.368;6.140;2023-04-15T00:25:23;9.82;;;4.38;;
15806;SDS011;8005;51.368;6.140;2023-04-15T00:26:55;8.30;;;4.10;;
15806;SDS011;8005;51.368;6.140;2023-04-15T00:28:27;9.35;;;4.07;;
15806;SDS011;8005;51.368;6.140;2023-04-15T00:29:59;8.27;;;4.10;;
15806;SDS011;8005;51.368;6.140;2023-04-15T00:31:31;11.32;;;4.53;;
15806;SDS011;8005;51.368;6.140;2023-04-15T00:33:03;11.85;;;4.55;;
15806;SDS011;8005;51.368;6.140;2023-04-15T00:34:35;11.60;;;5.23;;
15806;SDS011;8005;51.368;6.140;2023-04-15T00:36:07;7.93;;;4.30;;
15806;SDS011;8005;51.368;6.140;2023-04-15T00:37:41;8.73;;;4.72;;
15806;SDS011;8005;51.368;6.140;2023-04-15T00:39:16;8.38;;;4.57;;
15806;SDS011;8005;51.368;6.140;2023-04-15T00:40:48;9.73;;;5.50;;
15806;SDS011;8005;51.368;6.140;2023-04-15T00:42:20;10.15;;;5.30;;
15806;SDS011;8005;51.368;6.140;2023-04-15T00:43:52;10.90;;;5.53;;
15806;SDS011;8005;51.368;6.140;2023-04-15T00:45:25;9.65;;;5.32;;
15806;SDS011;8005;51.368;6.140;2023-04-15T00:47:00;8.48;;;5.18;;
15806;SDS011;8005;51.368;6.140;2023-04-15T00:48:32;10.95;;;5.30;;
15806;SDS011;8005;51.368;6.140;2023-04-15T00:50:05;11.10;;;5.07;;
15806;SDS011;8005;51.368;6.140;2023-04-15T00:51:37;13.27;;;4.70;;
15806;SDS011;8005;51.368;6.140;2023-04-15T00:53:10;7.80;;;4.60;;
15806;SDS011;8005;51.368;6.140;2023-04-15T00:54:42;9.13;;;5.07;;
15806;SDS011;8005;51.368;6.140;2023-04-15T00:56:14;12.47;;;5.13;;
15806;SDS011;8005;51.368;6.140;2023-04-15T00:57:46;9.30;;;4.93;;
15806;SDS011;8005;51.368;6.140;2023-04-15T00:59:19;9.45;;;5.20;;
15806;SDS011;8005;51.368;6.140;2023-04-15T01:00:51;11.35;;;5.10;;
15806;SDS011;8005;51.368;6.140;2023-04-15T01:02:24;9.55;;;5.30;;
15806;SDS011;8005;51.368;6.140;2023-04-15T01:03:57;13.27;;;5.90;;
15806;SDS011;8005;51.368;6.140;2023-04-15T01:05:30;14.10;;;5.45;;
15806;SDS011;8005;51.368;6.140;2023-04-15T01:07:03;12.23;;;6.15;;
15806;SDS011;8005;51.368;6.140;2023-04-15T01:10:07;16.92;;;6.38;;
15806;SDS011;8005;51.368;6.140;2023-04-15T01:11:40;15.13;;;5.78;;
15806;SDS011;8005;51.368;6.140;2023-04-15T01:13:12;11.85;;;6.07;;
15806;SDS011;8005;51.368;6.140;2023-04-15T01:14:44;11.18;;;5.47;;
15806;SDS011;8005;51.368;6.140;2023-04-15T01:16:16;10.93;;;6.47;;
15806;SDS011;8005;51.368;6.140;2023-04-15T01:17:49;10.88;;;6.10;;
15806;SDS011;8005;51.368;6.140;2023-04-15T01:19:21;15.02;;;6.45;;
15806;SDS011;8005;51.368;6.140;2023-04-15T01:20:53;13.35;;;7.72;;
15806;SDS011;8005;51.368;6.140;2023-04-15T01:22:27;11.60;;;6.30;;
15806;SDS011;8005;51.368;6.140;2023-04-15T01:23:59;13.30;;;5.87;;
15806;SDS011;8005;51.368;6.140;2023-04-15T01:25:32;10.68;;;5.95;;
15806;SDS011;8005;51.368;6.140;2023-04-15T01:27:04;12.55;;;6.30;;
15806;SDS011;8005;51.368;6.140;2023-04-15T01:28:37;11.13;;;6.25;;
15806;SDS011;8005;51.368;6.140;2023-04-15T01:30:09;14.27;;;6.63;;
15806;SDS011;8005;51.368;6.140;2023-04-15T01:31:51;14.30;;;6.55;;
15806;SDS011;8005;51.368;6.140;2023-04-15T01:33:24;11.05;;;6.55;;
15806;SDS011;8005;51.368;6.140;2023-04-15T01:34:56;15.13;;;6.70;;
15806;SDS011;8005;51.368;6.140;2023-04-15T01:36:28;12.02;;;6.97;;
15806;SDS011;8005;51.368;6.140;2023-04-15T01:38:04;14.27;;;6.85;;
15806;SDS011;8005;51.368;6.140;2023-04-15T01:39:37;12.80;;;7.47;;
15806;SDS011;8005;51.368;6.140;2023-04-15T01:41:10;11.68;;;7.45;;
15806;SDS011;8005;51.368;6.140;2023-04-15T01:42:42;11.20;;;7.47;;
15806;SDS011;8005;51.368;6.140;2023-04-15T01:44:14;13.57;;;7.17;;
15806;SDS011;8005;51.368;6.140;2023-04-15T01:45:46;15.25;;;7.32;;
15806;SDS011;8005;51.368;6.140;2023-04-15T01:47:18;14.90;;;7.82;;
15806;SDS011;8005;51.368;6.140;2023-04-15T01:48:51;14.20;;;7.07;;
15806;SDS011;8005;51.368;6.140;2023-04-15T01:50:23;10.63;;;6.95;;
15806;SDS011;8005;51.368;6.140;2023-04-15T01:51:55;13.80;;;8.98;;
15806;SDS011;8005;51.368;6.140;2023-04-15T01:53:27;11.60;;;7.43;;
15806;SDS011;8005;51.368;6.140;2023-04-15T01:54:59;13.68;;;7.75;;
15806;SDS011;8005;51.368;6.140;2023-04-15T01:56:32;16.10;;;8.30;;
15806;SDS011;8005;51.368;6.140;2023-04-15T01:58:04;14.98;;;7.82;;
15806;SDS011;8005;51.368;6.140;2023-04-15T01:59:36;13.07;;;7.43;;
15806;SDS011;8005;51.368;6.140;2023-04-15T02:01:08;12.93;;;7.68;;
15806;SDS011;8005;51.368;6.140;2023-04-15T02:02:41;17.38;;;7.75;;
15806;SDS011;8005;51.368;6.140;2023-04-15T02:04:14;15.05;;;8.23;;
15806;SDS011;8005;51.368;6.140;2023-04-15T02:05:49;15.73;;;8.52;;
15806;SDS011;8005;51.368;6.140;2023-04-15T02:07:21;14.25;;;8.65;;
15806;SDS011;8005;51.368;6.140;2023-04-15T02:08:54;13.93;;;8.30;;
15806;SDS011;8005;51.368;6.140;2023-04-15T02:10:26;12.63;;;8.05;;
15806;SDS011;8005;51.368;6.140;2023-04-15T02:11:58;14.43;;;8.75;;
15806;SDS011;8005;51.368;6.140;2023-04-15T02:13:32;16.52;;;8.60;;
15806;SDS011;8005;51.368;6.140;2023-04-15T02:15:04;13.85;;;7.85;;
15806;SDS011;8005;51.368;6.140;2023-04-15T02:16:36;13.65;;;8.82;;
15806;SDS011;8005;51.368;6.140;2023-04-15T02:18:08;15.88;;;8.88;;
15806;SDS011;8005;51.368;6.140;2023-04-15T02:19:40;15.50;;;8.25;;
15806;SDS011;8005;51.368;6.140;2023-04-15T02:21:12;15.13;;;8.53;;
15806;SDS011;8005;51.368;6.140;2023-04-15T02:22:44;13.70;;;8.10;;
15806;SDS011;8005;51.368;6.140;2023-04-15T02:24:18;16.10;;;7.88;;
15806;SDS011;8005;51.368;6.140;2023-04-15T02:25:50;14.70;;;8.82;;
15806;SDS011;8005;51.368;6.140;2023-04-15T02:27:24;14.27;;;8.32;;
15806;SDS011;8005;51.368;6.140;2023-04-15T02:28:56;16.42;;;8.75;;
15806;SDS011;8005;51.368;6.140;2023-04-15T02:30:28;13.85;;;8.93;;
15806;SDS011;8005;51.368;6.140;2023-04-15T02:32:00;15.93;;;9.45;;
15806;SDS011;8005;51.368;6.140;2023-04-15T02:33:32;16.25;;;8.70;;
15806;SDS011;8005;51.368;6.140;2023-04-15T02:35:04;11.23;;;6.78;;
15806;SDS011;8005;51.368;6.140;2023-04-15T02:36:38;19.92;;;8.70;;
15806;SDS011;8005;51.368;6.140;2023-04-15T02:38:11;16.45;;;8.77;;
15806;SDS011;8005;51.368;6.140;2023-04-15T02:39:44;14.50;;;8.63;;
15806;SDS011;8005;51.368;6.140;2023-04-15T02:41:18;15.60;;;8.43;;
15806;SDS011;8005;51.368;6.140;2023-04-15T02:42:50;17.05;;;9.27;;
15806;SDS011;8005;51.368;6.140;2023-04-15T02:44:22;14.33;;;8.83;;
15806;SDS011;8005;51.368;6.140;2023-04-15T02:46:00;15.32;;;9.23;;
15806;SDS011;8005;51.368;6.140;2023-04-15T02:47:32;18.63;;;9.68;;
15806;SDS011;8005;51.368;6.140;2023-04-15T02:50:37;17.63;;;9.00;;
15806;SDS011;8005;51.368;6.140;2023-04-15T02:52:31;15.80;;;9.38;;
15806;SDS011;8005;51.368;6.140;2023-04-15T02:54:03;19.63;;;10.80;;
15806;SDS011;8005;51.368;6.140;2023-04-15T02:55:35;13.98;;;8.65;;
15806;SDS011;8005;51.368;6.140;2023-04-15T02:57:07;15.73;;;9.70;;
15806;SDS011;8005;51.368;6.140;2023-04-15T02:58:39;19.95;;;9.43;;
15806;SDS011;8005;51.368;6.140;2023-04-15T03:00:12;14.90;;;9.50;;
15806;SDS011;8005;51.368;6.140;2023-04-15T03:01:46;15.95;;;9.35;;
15806;SDS011;8005;51.368;6.140;2023-04-15T03:03:19;17.17;;;9.15;;
15806;SDS011;8005;51.368;6.140;2023-04-15T03:04:51;17.83;;;9.95;;
15806;SDS011;8005;51.368;6.140;2023-04-15T03:06:23;14.27;;;9.40;;
15806;SDS011;8005;51.368;6.140;2023-04-15T03:07:55;18.60;;;10.18;;
15806;SDS011;8005;51.368;6.140;2023-04-15T03:09:27;18.93;;;9.77;;
15806;SDS011;8005;51.368;6.140;2023-04-15T03:10:59;18.00;;;9.98;;
15806;SDS011;8005;51.368;6.140;2023-04-15T03:12:33;17.85;;;10.18;;
15806;SDS011;8005;51.368;6.140;2023-04-15T03:14:05;16.13;;;9.30;;
15806;SDS011;8005;51.368;6.140;2023-04-15T03:15:40;19.73;;;9.77;;
15806;SDS011;8005;51.368;6.140;2023-04-15T03:17:13;18.00;;;10.18;;
15806;SDS011;8005;51.368;6.140;2023-04-15T03:18:45;21.17;;;10.32;;
15806;SDS011;8005;51.368;6.140;2023-04-15T03:20:17;15.30;;;9.38;;
15806;SDS011;8005;51.368;6.140;2023-04-15T03:21:51;20.58;;;11.35;;
15806;SDS011;8005;51.368;6.140;2023-04-15T03:23:23;16.88;;;11.05;;
15806;SDS011;8005;51.368;6.140;2023-04-15T03:26:28;13.27;;;9.38;;
15806;SDS011;8005;51.368;6.140;2023-04-15T03:28:09;17.35;;;10.63;;
15806;SDS011;8005;51.368;6.140;2023-04-15T03:29:41;17.13;;;10.48;;
15806;SDS011;8005;51.368;6.140;2023-04-15T03:31:13;13.13;;;9.05;;
15806;SDS011;8005;51.368;6.140;2023-04-15T03:32:45;21.25;;;10.55;;
15806;SDS011;8005;51.368;6.140;2023-04-15T03:34:17;19.95;;;10.73;;
15806;SDS011;8005;51.368;6.140;2023-04-15T03:35:49;20.65;;;11.27;;
15806;SDS011;8005;51.368;6.140;2023-04-15T03:38:54;15.00;;;9.07;;
15806;SDS011;8005;51.368;6.140;2023-04-15T03:41:59;17.45;;;10.02;;
15806;SDS011;8005;51.368;6.140;2023-04-15T03:43:32;20.55;;;11.43;;
15806;SDS011;8005;51.368;6.140;2023-04-15T03:45:04;24.35;;;11.50;;
15806;SDS011;8005;51.368;6.140;2023-04-15T03:46:36;23.35;;;10.90;;
15806;SDS011;8005;51.368;6.140;2023-04-15T03:48:08;20.20;;;11.23;;
15806;SDS011;8005;51.368;6.140;2023-04-15T03:49:48;16.15;;;10.60;;
15806;SDS011;8005;51.368;6.140;2023-04-15T03:51:20;20.65;;;11.13;;
15806;SDS011;8005;51.368;6.140;2023-04-15T03:52:52;15.98;;;10.68;;
15806;SDS011;8005;51.368;6.140;2023-04-15T03:54:24;17.45;;;10.18;;
15806;SDS011;8005;51.368;6.140;2023-04-15T03:55:56;39.35;;;12.23;;
15806;SDS011;8005;51.368;6.140;2023-04-15T03:57:28;16.17;;;11.05;;
15806;SDS011;8005;51.368;6.140;2023-04-15T03:59:00;14.82;;;9.27;;
15806;SDS011;8005;51.368;6.140;2023-04-15T04:00:32;18.65;;;10.73;;
15806;SDS011;8005;51.368;6.140;2023-04-15T04:02:04;15.80;;;10.35;;
15806;SDS011;8005;51.368;6.140;2023-04-15T04:03:36;23.43;;;10.90;;
15806;SDS011;8005;51.368;6.140;2023-04-15T04:05:08;18.07;;;10.87;;
15806;SDS011;8005;51.368;6.140;2023-04-15T04:06:41;18.88;;;10.15;;
15806;SDS011;8005;51.368;6.140;2023-04-15T04:08:13;19.17;;;10.70;;
15806;SDS011;8005;51.368;6.140;2023-04-15T04:09:46;18.67;;;10.00;;
15806;SDS011;8005;51.368;6.140;2023-04-15T04:11:18;15.85;;;10.50;;
15806;SDS011;8005;51.368;6.140;2023-04-15T04:14:23;16.10;;;10.68;;
15806;SDS011;8005;51.368;6.140;2023-04-15T04:15:59;21.52;;;10.57;;
15806;SDS011;8005;51.368;6.140;2023-04-15T04:17:32;16.40;;;10.48;;
15806;SDS011;8005;51.368;6.140;2023-04-15T04:19:04;20.75;;;11.13;;
15806;SDS011;8005;51.368;6.140;2023-04-15T04:20:36;18.52;;;10.05;;
15806;SDS011;8005;51.368;6.140;2023-04-15T04:22:08;18.13;;;11.70;;
15806;SDS011;8005;51.368;6.140;2023-04-15T04:23:41;14.95;;;10.25;;
15806;SDS011;8005;51.368;6.140;2023-04-15T04:25:13;17.27;;;10.40;;
15806;SDS011;8005;51.368;6.140;2023-04-15T04:26:45;16.70;;;10.37;;
15806;SDS011;8005;51.368;6.140;2023-04-15T04:28:17;18.03;;;9.93;;
15806;SDS011;8005;51.368;6.140;2023-04-15T04:29:48;16.20;;;10.10;;
15806;SDS011;8005;51.368;6.140;2023-04-15T04:31:21;16.25;;;10.30;;
15806;SDS011;8005;51.368;6.140;2023-04-15T04:32:53;14.27;;;10.37;;
15806;SDS011;8005;51.368;6.140;2023-04-15T04:34:25;15.70;;;9.90;;
15806;SDS011;8005;51.368;6.140;2023-04-15T04:35:57;17.92;;;10.93;;
15806;SDS011;8005;51.368;6.140;2023-04-15T04:37:29;19.15;;;9.98;;
15806;SDS011;8005;51.368;6.140;2023-04-15T04:39:01;14.90;;;9.77;;
15806;SDS011;8005;51.368;6.140;2023-04-15T04:40:33;18.40;;;9.90;;
15806;SDS011;8005;51.368;6.140;2023-04-15T04:42:05;15.95;;;10.25;;
15806;SDS011;8005;51.368;6.140;2023-04-15T04:43:37;17.25;;;10.80;;
15806;SDS011;8005;51.368;6.140;2023-04-15T04:45:09;17.80;;;9.88;;
15806;SDS011;8005;51.368;6.140;2023-04-15T04:46:41;18.55;;;9.68;;
15806;SDS011;8005;51.368;6.140;2023-04-15T04:48:13;15.18;;;9.63;;
15806;SDS011;8005;51.368;6.140;2023-04-15T04:49:45;17.98;;;10.65;;
15806;SDS011;8005;51.368;6.140;2023-04-15T04:51:17;23.60;;;10.50;;
15806;SDS011;8005;51.368;6.140;2023-04-15T04:52:49;20.95;;;10.68;;
15806;SDS011;8005;51.368;6.140;2023-04-15T04:54:21;19.77;;;11.38;;
15806;SDS011;8005;51.368;6.140;2023-04-15T04:55:53;16.73;;;10.43;;
15806;SDS011;8005;51.368;6.140;2023-04-15T04:57:25;19.13;;;10.00;;
15806;SDS011;8005;51.368;6.140;2023-04-15T04:58:57;17.60;;;9.60;;
15806;SDS011;8005;51.368;6.140;2023-04-15T05:00:29;13.55;;;9.52;;
15806;SDS011;8005;51.368;6.140;2023-04-15T05:02:01;17.03;;;10.57;;
15806;SDS011;8005;51.368;6.140;2023-04-15T05:05:06;15.85;;;9.93;;
15806;SDS011;8005;51.368;6.140;2023-04-15T05:06:39;14.55;;;9.57;;
15806;SDS011;8005;51.368;6.140;2023-04-15T05:08:11;17.58;;;10.30;;
15806;SDS011;8005;51.368;6.140;2023-04-15T05:09:43;18.38;;;10.05;;
15806;SDS011;8005;51.368;6.140;2023-04-15T05:11:15;17.35;;;10.85;;
15806;SDS011;8005;51.368;6.140;2023-04-15T05:12:47;22.00;;;11.40;;
15806;SDS011;8005;51.368;6.140;2023-04-15T05:14:18;21.67;;;11.43;;
15806;SDS011;8005;51.368;6.140;2023-04-15T05:15:53;14.98;;;9.52;;
15806;SDS011;8005;51.368;6.140;2023-04-15T05:17:25;14.27;;;9.95;;
15806;SDS011;8005;51.368;6.140;2023-04-15T05:18:58;16.65;;;10.68;;
15806;SDS011;8005;51.368;6.140;2023-04-15T05:20:30;16.15;;;10.55;;
15806;SDS011;8005;51.368;6.140;2023-04-15T05:22:02;17.42;;;10.80;;
15806;SDS011;8005;51.368;6.140;2023-04-15T05:23:33;14.98;;;10.27;;
15806;SDS011;8005;51.368;6.140;2023-04-15T05:25:06;17.40;;;10.83;;
15806;SDS011;8005;51.368;6.140;2023-04-15T05:26:38;17.00;;;10.25;;
15806;SDS011;8005;51.368;6.140;2023-04-15T05:28:10;17.00;;;9.35;;
15806;SDS011;8005;51.368;6.140;2023-04-15T05:29:42;18.85;;;9.52;;
15806;SDS011;8005;51.368;6.140;2023-04-15T05:31:15;16.73;;;10.50;;
15806;SDS011;8005;51.368;6.140;2023-04-15T05:32:47;18.40;;;10.63;;
15806;SDS011;8005;51.368;6.140;2023-04-15T05:34:19;16.23;;;10.90;;
15806;SDS011;8005;51.368;6.140;2023-04-15T05:35:51;14.55;;;10.27;;
15806;SDS011;8005;51.368;6.140;2023-04-15T05:37:23;15.65;;;10.35;;
15806;SDS011;8005;51.368;6.140;2023-04-15T05:38:54;18.48;;;11.13;;
15806;SDS011;8005;51.368;6.140;2023-04-15T05:40:26;15.13;;;10.37;;
15806;SDS011;8005;51.368;6.140;2023-04-15T05:41:58;18.30;;;10.95;;
15806;SDS011;8005;51.368;6.140;2023-04-15T05:43:31;14.35;;;10.18;;
15806;SDS011;8005;51.368;6.140;2023-04-15T05:45:03;16.95;;;10.57;;
15806;SDS011;8005;51.368;6.140;2023-04-15T05:48:07;16.45;;;9.80;;
15806;SDS011;8005;51.368;6.140;2023-04-15T05:49:39;19.50;;;10.23;;
15806;SDS011;8005;51.368;6.140;2023-04-15T05:51:11;16.30;;;10.63;;
15806;SDS011;8005;51.368;6.140;2023-04-15T05:52:43;17.53;;;11.07;;
15806;SDS011;8005;51.368;6.140;2023-04-15T05:54:16;14.93;;;9.75;;
15806;SDS011;8005;51.368;6.140;2023-04-15T05:55:50;16.27;;;9.57;;
15806;SDS011;8005;51.368;6.140;2023-04-15T05:57:22;18.83;;;10.52;;
15806;SDS011;8005;51.368;6.140;2023-04-15T05:58:54;16.77;;;11.13;;
15806;SDS011;8005;51.368;6.140;2023-04-15T06:00:27;17.45;;;10.15;;
15806;SDS011;8005;51.368;6.140;2023-04-15T06:01:59;15.25;;;10.75;;
15806;SDS011;8005;51.368;6.140;2023-04-15T06:03:31;12.23;;;8.00;;
15806;SDS011;8005;51.368;6.140;2023-04-15T06:05:04;17.00;;;10.90;;
15806;SDS011;8005;51.368;6.140;2023-04-15T06:06:40;18.63;;;10.80;;
15806;SDS011;8005;51.368;6.140;2023-04-15T06:08:12;17.08;;;10.65;;
15806;SDS011;8005;51.368;6.140;2023-04-15T06:09:44;18.20;;;10.77;;
15806;SDS011;8005;51.368;6.140;2023-04-15T06:11:16;19.50;;;11.20;;
15806;SDS011;8005;51.368;6.140;2023-04-15T06:12:48;16.27;;;10.37;;
15806;SDS011;8005;51.368;6.140;2023-04-15T06:14:20;18.65;;;10.68;;
15806;SDS011;8005;51.368;6.140;2023-04-15T06:15:52;20.20;;;10.43;;
15806;SDS011;8005;51.368;6.140;2023-04-15T06:17:24;19.80;;;11.30;;
15806;SDS011;8005;51.368;6.140;2023-04-15T06:18:56;18.25;;;10.40;;
15806;SDS011;8005;51.368;6.140;2023-04-15T06:20:28;18.17;;;9.73;;
15806;SDS011;8005;51.368;6.140;2023-04-15T06:22:00;14.07;;;9.77;;
15806;SDS011;8005;51.368;6.140;2023-04-15T06:23:35;16.63;;;10.75;;
15806;SDS011;8005;51.368;6.140;2023-04-15T06:25:07;16.27;;;10.68;;
15806;SDS011;8005;51.368;6.140;2023-04-15T06:26:39;15.50;;;10.77;;
15806;SDS011;8005;51.368;6.140;2023-04-15T06:28:12;18.13;;;11.25;;
15806;SDS011;8005;51.368;6.140;2023-04-15T06:29:44;19.77;;;11.48;;
15806;SDS011;8005;51.368;6.140;2023-04-15T06:31:16;16.70;;;10.43;;
15806;SDS011;8005;51.368;6.140;2023-04-15T06:32:48;19.23;;;11.00;;
15806;SDS011;8005;51.368;6.140;2023-04-15T06:34:20;17.67;;;10.60;;
15806;SDS011;8005;51.368;6.140;2023-04-15T06:35:52;17.83;;;11.67;;
15806;SDS011;8005;51.368;6.140;2023-04-15T06:37:24;17.10;;;11.00;;
15806;SDS011;8005;51.368;6.140;2023-04-15T06:38:56;20.35;;;11.48;;
15806;SDS011;8005;51.368;6.140;2023-04-15T06:40:28;18.00;;;11.70;;
15806;SDS011;8005;51.368;6.140;2023-04-15T06:42:00;16.70;;;10.50;;
15806;SDS011;8005;51.368;6.140;2023-04-15T06:43:32;29.90;;;12.32;;
15806;SDS011;8005;51.368;6.140;2023-04-15T06:45:04;16.57;;;10.83;;
15806;SDS011;8005;51.368;6.140;2023-04-15T06:46:37;16.50;;;11.43;;
15806;SDS011;8005;51.368;6.140;2023-04-15T06:48:09;22.95;;;11.07;;
15806;SDS011;8005;51.368;6.140;2023-04-15T06:49:41;14.75;;;10.52;;
15806;SDS011;8005;51.368;6.140;2023-04-15T06:51:13;16.38;;;9.82;;
15806;SDS011;8005;51.368;6.140;2023-04-15T06:52:45;18.35;;;10.40;;
15806;SDS011;8005;51.368;6.140;2023-04-15T06:54:17;16.50;;;10.73;;
15806;SDS011;8005;51.368;6.140;2023-04-15T06:55:49;18.10;;;10.37;;
15806;SDS011;8005;51.368;6.140;2023-04-15T06:57:21;15.57;;;10.82;;
15806;SDS011;8005;51.368;6.140;2023-04-15T06:58:53;14.37;;;9.43;;
15806;SDS011;8005;51.368;6.140;2023-04-15T07:00:25;14.47;;;9.97;;
15806;SDS011;8005;51.368;6.140;2023-04-15T07:01:58;18.75;;;10.23;;
15806;SDS011;8005;51.368;6.140;2023-04-15T07:03:31;18.77;;;11.10;;
15806;SDS011;8005;51.368;6.140;2023-04-15T07:05:04;15.38;;;9.90;;
15806;SDS011;8005;51.368;6.140;2023-04-15T07:06:37;15.43;;;9.40;;
15806;SDS011;8005;51.368;6.140;2023-04-15T07:08:09;14.68;;;10.02;;
15806;SDS011;8005;51.368;6.140;2023-04-15T07:09:41;16.27;;;9.53;;
15806;SDS011;8005;51.368;6.140;2023-04-15T07:11:13;17.67;;;10.52;;
15806;SDS011;8005;51.368;6.140;2023-04-15T07:12:46;18.17;;;10.65;;
15806;SDS011;8005;51.368;6.140;2023-04-15T07:14:18;15.52;;;9.90;;
15806;SDS011;8005;51.368;6.140;2023-04-15T07:15:50;16.13;;;10.43;;
15806;SDS011;8005;51.368;6.140;2023-04-15T07:17:22;17.00;;;10.02;;
15806;SDS011;8005;51.368;6.140;2023-04-15T07:18:54;15.43;;;10.10;;
15806;SDS011;8005;51.368;6.140;2023-04-15T07:20:26;14.95;;;10.23;;
15806;SDS011;8005;51.368;6.140;2023-04-15T07:21:58;16.30;;;11.00;;
15806;SDS011;8005;51.368;6.140;2023-04-15T07:23:31;17.20;;;10.50;;
15806;SDS011;8005;51.368;6.140;2023-04-15T07:25:03;18.02;;;11.45;;
15806;SDS011;8005;51.368;6.140;2023-04-15T07:26:35;17.73;;;11.05;;
15806;SDS011;8005;51.368;6.140;2023-04-15T07:28:07;18.42;;;11.38;;
15806;SDS011;8005;51.368;6.140;2023-04-15T07:29:39;15.93;;;10.10;;
15806;SDS011;8005;51.368;6.140;2023-04-15T07:31:12;21.00;;;10.52;;
15806;SDS011;8005;51.368;6.140;2023-04-15T07:32:44;16.58;;;10.55;;
15806;SDS011;8005;51.368;6.140;2023-04-15T07:34:18;16.05;;;10.07;;
15806;SDS011;8005;51.368;6.140;2023-04-15T07:35:50;15.20;;;10.63;;
15806;SDS011;8005;51.368;6.140;2023-04-15T07:37:22;16.23;;;10.40;;
15806;SDS011;8005;51.368;6.140;2023-04-15T07:38:54;17.13;;;11.20;;
15806;SDS011;8005;51.368;6.140;2023-04-15T07:40:26;15.40;;;10.40;;
15806;SDS011;8005;51.368;6.140;2023-04-15T07:41:58;16.35;;;10.68;;
15806;SDS011;8005;51.368;6.140;2023-04-15T07:43:30;18.25;;;11.45;;
15806;SDS011;8005;51.368;6.140;2023-04-15T07:45:03;17.77;;;11.82;;
15806;SDS011;8005;51.368;6.140;2023-04-15T07:46:35;16.90;;;10.05;;
15806;SDS011;8005;51.368;6.140;2023-04-15T07:48:09;18.50;;;10.68;;
15806;SDS011;8005;51.368;6.140;2023-04-15T07:49:41;18.83;;;11.48;;
15806;SDS011;8005;51.368;6.140;2023-04-15T07:51:14;15.45;;;10.38;;
15806;SDS011;8005;51.368;6.140;2023-04-15T07:52:46;15.47;;;11.40;;
15806;SDS011;8005;51.368;6.140;2023-04-15T07:54:19;16.70;;;10.55;;
15806;SDS011;8005;51.368;6.140;2023-04-15T07:55:51;15.83;;;10.63;;
15806;SDS011;8005;51.368;6.140;2023-04-15T07:57:23;17.58;;;10.77;;
15806;SDS011;8005;51.368;6.140;2023-04-15T07:58:55;15.60;;;10.23;;
15806;SDS011;8005;51.368;6.140;2023-04-15T08:00:27;16.05;;;10.40;;
15806;SDS011;8005;51.368;6.140;2023-04-15T08:01:59;14.48;;;9.88;;
15806;SDS011;8005;51.368;6.140;2023-04-15T08:03:31;15.63;;;9.98;;
15806;SDS011;8005;51.368;6.140;2023-04-15T08:05:03;14.27;;;9.88;;
15806;SDS011;8005;51.368;6.140;2023-04-15T08:06:36;15.13;;;10.02;;
15806;SDS011;8005;51.368;6.140;2023-04-15T08:08:10;13.02;;;9.20;;
15806;SDS011;8005;51.368;6.140;2023-04-15T08:09:42;14.18;;;8.43;;
15806;SDS011;8005;51.368;6.140;2023-04-15T08:11:14;15.80;;;9.13;;
15806;SDS011;8005;51.368;6.140;2023-04-15T08:12:46;13.32;;;8.73;;
15806;SDS011;8005;51.368;6.140;2023-04-15T08:14:20;15.15;;;8.77;;
15806;SDS011;8005;51.368;6.140;2023-04-15T08:16:14;12.90;;;9.35;;
15806;SDS011;8005;51.368;6.140;2023-04-15T08:17:47;12.20;;;8.13;;
15806;SDS011;8005;51.368;6.140;2023-04-15T08:19:19;12.88;;;8.38;;
15806;SDS011;8005;51.368;6.140;2023-04-15T08:20:51;12.23;;;8.10;;
15806;SDS011;8005;51.368;6.140;2023-04-15T08:22:23;11.70;;;7.70;;
15806;SDS011;8005;51.368;6.140;2023-04-15T08:23:55;10.77;;;7.63;;
15806;SDS011;8005;51.368;6.140;2023-04-15T08:25:27;12.30;;;6.82;;
15806;SDS011;8005;51.368;6.140;2023-04-15T08:27:01;12.85;;;6.45;;
15806;SDS011;8005;51.368;6.140;2023-04-15T08:28:37;13.00;;;6.75;;
15806;SDS011;8005;51.368;6.140;2023-04-15T08:30:10;10.43;;;6.63;;
15806;SDS011;8005;51.368;6.140;2023-04-15T08:31:42;10.70;;;7.15;;
15806;SDS011;8005;51.368;6.140;2023-04-15T08:33:15;11.38;;;7.00;;
15806;SDS011;8005;51.368;6.140;2023-04-15T08:34:47;11.18;;;6.68;;
15806;SDS011;8005;51.368;6.140;2023-04-15T08:36:19;9.27;;;6.70;;
15806;SDS011;8005;51.368;6.140;2023-04-15T08:37:51;8.10;;;5.67;;
15806;SDS011;8005;51.368;6.140;2023-04-15T08:39:23;11.00;;;6.82;;
15806;SDS011;8005;51.368;6.140;2023-04-15T08:40:55;10.00;;;6.53;;
15806;SDS011;8005;51.368;6.140;2023-04-15T08:42:43;11.52;;;6.53;;
15806;SDS011;8005;51.368;6.140;2023-04-15T08:44:16;11.02;;;6.00;;
15806;SDS011;8005;51.368;6.140;2023-04-15T08:45:49;8.55;;;5.60;;
15806;SDS011;8005;51.368;6.140;2023-04-15T08:47:22;10.32;;;5.63;;
15806;SDS011;8005;51.368;6.140;2023-04-15T08:48:57;7.15;;;4.32;;
15806;SDS011;8005;51.368;6.140;2023-04-15T08:50:30;7.03;;;4.97;;
15806;SDS011;8005;51.368;6.140;2023-04-15T08:52:03;6.35;;;4.47;;
15806;SDS011;8005;51.368;6.140;2023-04-15T08:53:35;10.35;;;5.47;;
15806;SDS011;8005;51.368;6.140;2023-04-15T08:55:07;10.18;;;5.57;;
15806;SDS011;8005;51.368;6.140;2023-04-15T08:56:40;9.15;;;4.75;;
15806;SDS011;8005;51.368;6.140;2023-04-15T08:58:13;6.95;;;4.22;;
15806;SDS011;8005;51.368;6.140;2023-04-15T08:59:46;7.22;;;3.95;;
15806;SDS011;8005;51.368;6.140;2023-04-15T09:01:18;6.47;;;4.60;;
15806;SDS011;8005;51.368;6.140;2023-04-15T09:02:51;8.13;;;4.30;;
15806;SDS011;8005;51.368;6.140;2023-04-15T09:04:24;5.88;;;4.07;;
15806;SDS011;8005;51.368;6.140;2023-04-15T09:05:56;7.28;;;4.43;;
15806;SDS011;8005;51.368;6.140;2023-04-15T09:07:29;6.82;;;5.20;;
15806;SDS011;8005;51.368;6.140;2023-04-15T09:09:01;6.78;;;4.13;;
15806;SDS011;8005;51.368;6.140;2023-04-15T09:10:33;6.25;;;4.25;;
15806;SDS011;8005;51.368;6.140;2023-04-15T09:12:06;5.03;;;4.10;;
15806;SDS011;8005;51.368;6.140;2023-04-15T09:13:39;7.15;;;4.20;;
15806;SDS011;8005;51.368;6.140;2023-04-15T09:15:11;8.25;;;4.55;;
15806;SDS011;8005;51.368;6.140;2023-04-15T09:16:57;8.15;;;4.65;;
15806;SDS011;8005;51.368;6.140;2023-04-15T09:18:33;6.05;;;4.00;;
15806;SDS011;8005;51.368;6.140;2023-04-15T09:20:12;4.95;;;3.40;;
15806;SDS011;8005;51.368;6.140;2023-04-15T09:21:46;7.93;;;4.72;;
15806;SDS011;8005;51.368;6.140;2023-04-15T09:24:50;6.45;;;3.70;;
15806;SDS011;8005;51.368;6.140;2023-04-15T09:26:56;6.90;;;3.92;;
15806;SDS011;8005;51.368;6.140;2023-04-15T09:28:27;4.90;;;3.13;;
15806;SDS011;8005;51.368;6.140;2023-04-15T09:29:59;5.50;;;3.45;;
15806;SDS011;8005;51.368;6.140;2023-04-15T09:31:31;7.70;;;3.72;;